createdAt,value
2023-04-08T00:01:39.245Z,8.05
2023-04-08T00:04:09.961Z,8.10
2023-04-08T00:06:39.031Z,11.27
2023-04-08T00:09:07.122Z,8.25
2023-04-08T00:11:37.395Z,8.40
2023-04-08T00:14:05.640Z,9.48
2023-04-08T00:16:35.519Z,12.10
2023-04-08T00:19:03.733Z,12.43
2023-04-08T00:21:33.117Z,11.30
2023-04-08T00:24:01.338Z,8.93
2023-04-08T00:26:29.402Z,11.02
2023-04-08T00:28:57.453Z,11.70
2023-04-08T00:31:25.691Z,9.30
2023-04-08T00:33:53.826Z,9.00
2023-04-08T00:36:21.849Z,8.27
2023-04-08T00:38:51.515Z,9.57
2023-04-08T00:41:19.685Z,11.98
2023-04-08T00:43:47.748Z,9.65
2023-04-08T00:46:16.001Z,11.38
2023-04-08T00:48:44.101Z,9.98
2023-04-08T00:51:12.503Z,11.30
2023-04-08T00:53:40.610Z,11.32
2023-04-08T00:56:09.999Z,12.10
2023-04-08T00:58:38.106Z,10.43
2023-04-08T01:01:08.349Z,7.93
2023-04-08T01:03:40.891Z,9.63
2023-04-08T01:06:12.498Z,9.77
2023-04-08T01:08:41.331Z,13.73
2023-04-08T01:11:12.158Z,10.32
2023-04-08T01:13:41.764Z,9.18
2023-04-08T01:16:10.733Z,9.88
2023-04-08T01:18:38.853Z,10.15
2023-04-08T01:21:06.928Z,9.80
2023-04-08T01:23:40.386Z,11.30
2023-04-08T01:26:10.898Z,10.80
2023-04-08T01:28:38.993Z,13.05
2023-04-08T01:31:07.222Z,15.27
2023-04-08T01:33:35.671Z,14.98
2023-04-08T01:36:03.732Z,15.55
2023-04-08T01:38:32.276Z,24.77
2023-04-08T01:41:00.308Z,49.70
2023-04-08T01:43:29.738Z,20.10
2023-04-08T01:45:59.145Z,20.23
2023-04-08T01:48:27.513Z,16.83
2023-04-08T01:50:55.800Z,15.05
2023-04-08T01:53:24.030Z,17.60
2023-04-08T01:55:55.612Z,19.63
2023-04-08T01:58:23.646Z,19.15
2023-04-08T02:00:53.033Z,27.08
2023-04-08T02:03:21.392Z,21.05
2023-04-08T02:05:49.821Z,23.20
2023-04-08T02:08:18.002Z,20.52
2023-04-08T02:10:46.317Z,19.52
2023-04-08T02:13:14.359Z,21.45
2023-04-08T02:15:44.242Z,15.73
2023-04-08T02:18:15.662Z,15.60
2023-04-08T02:20:46.078Z,11.27
2023-04-08T02:23:17.015Z,15.88
2023-04-08T02:25:46.677Z,17.30
2023-04-08T02:28:15.037Z,12.32
2023-04-08T02:30:43.770Z,9.45
2023-04-08T02:33:14.838Z,19.25
2023-04-08T02:35:43.020Z,23.08
2023-04-08T02:38:11.814Z,15.85
2023-04-08T02:40:39.876Z,17.27
2023-04-08T02:43:07.913Z,14.65
2023-04-08T02:45:39.233Z,15.32
2023-04-08T02:48:07.797Z,16.23
2023-04-08T02:50:37.252Z,17.10
2023-04-08T02:53:05.518Z,15.80
2023-04-08T02:55:33.591Z,15.38
2023-04-08T02:58:01.633Z,15.90
2023-04-08T03:00:29.729Z,17.70
2023-04-08T03:02:57.987Z,16.40
2023-04-08T03:05:27.347Z,17.77
2023-04-08T03:07:56.757Z,15.32
2023-04-08T03:10:25.100Z,15.10
2023-04-08T03:12:53.176Z,17.77
2023-04-08T03:15:21.348Z,17.38
2023-04-08T03:17:49.439Z,20.05
2023-04-08T03:20:17.546Z,15.50
2023-04-08T03:22:45.719Z,19.13
2023-04-08T03:25:15.169Z,13.82
2023-04-08T03:27:43.339Z,17.77
2023-04-08T03:30:11.870Z,13.68
2023-04-08T03:32:40.058Z,18.30
2023-04-08T03:35:08.768Z,17.58
2023-04-08T03:37:36.937Z,14.15
2023-04-08T03:40:05.436Z,18.17
2023-04-08T03:42:35.228Z,16.70
2023-04-08T03:45:03.718Z,20.17
2023-04-08T03:47:32.261Z,16.00
2023-04-08T03:50:00.413Z,18.33
2023-04-08T03:52:28.511Z,16.83
2023-04-08T03:54:56.578Z,14.40
2023-04-08T03:57:24.665Z,17.15
2023-04-08T03:59:54.312Z,16.70
2023-04-08T04:02:22.485Z,19.02
2023-04-08T04:04:50.688Z,16.35
2023-04-08T04:07:18.777Z,17.83
2023-04-08T04:09:46.894Z,16.58
2023-04-08T04:12:14.923Z,16.20
2023-04-08T04:14:42.942Z,19.73
2023-04-08T04:17:12.362Z,18.23
2023-04-08T04:19:40.578Z,19.17
2023-04-08T04:22:08.618Z,14.88
2023-04-08T04:24:36.694Z,15.95
2023-04-08T04:27:04.836Z,17.08
2023-04-08T04:29:33.034Z,16.38
2023-04-08T04:32:01.186Z,19.08
2023-04-08T04:34:30.668Z,14.68
2023-04-08T04:36:58.709Z,15.93
2023-04-08T04:39:26.730Z,16.38
2023-04-08T04:41:54.744Z,15.93
2023-04-08T04:44:22.816Z,14.80
2023-04-08T04:46:50.897Z,16.77
2023-04-08T04:49:19.093Z,16.55
2023-04-08T04:51:49.306Z,18.73
2023-04-08T04:54:17.341Z,17.35
2023-04-08T04:56:45.624Z,17.35
2023-04-08T04:59:13.793Z,18.00
2023-04-08T05:01:42.160Z,16.17
2023-04-08T05:04:10.608Z,18.92
2023-04-08T05:06:38.633Z,17.00
2023-04-08T05:09:08.046Z,23.35
2023-04-08T05:11:36.081Z,18.98
2023-04-08T05:14:04.106Z,19.48
2023-04-08T05:16:32.242Z,14.55
2023-04-08T05:19:00.484Z,18.15
2023-04-08T05:21:28.894Z,18.33
2023-04-08T05:23:56.910Z,18.30
2023-04-08T05:26:26.488Z,18.65
2023-04-08T05:28:54.709Z,21.08
2023-04-08T05:31:22.890Z,17.42
2023-04-08T05:33:51.147Z,20.52
2023-04-08T05:36:19.261Z,19.38
2023-04-08T05:38:47.399Z,15.93
2023-04-08T05:41:15.676Z,16.83
2023-04-08T05:43:45.119Z,21.38
2023-04-08T05:46:13.234Z,21.25
2023-04-08T05:48:41.382Z,20.17
2023-04-08T05:51:14.194Z,19.90
2023-04-08T05:53:42.282Z,19.15
2023-04-08T05:56:10.448Z,21.42
2023-04-08T05:58:38.574Z,20.55
2023-04-08T06:01:08.077Z,20.73
2023-04-08T06:03:36.497Z,23.75
2023-04-08T06:06:04.820Z,25.67
2023-04-08T06:08:32.959Z,22.15
2023-04-08T06:11:01.132Z,25.65
2023-04-08T06:13:29.240Z,26.20
2023-04-08T06:15:57.262Z,22.48
2023-04-08T06:18:26.725Z,25.77
2023-04-08T06:20:54.780Z,24.38
2023-04-08T06:23:22.827Z,29.10
2023-04-08T06:25:50.868Z,25.48
2023-04-08T06:28:19.199Z,24.15
2023-04-08T06:30:47.213Z,28.70
2023-04-08T06:33:15.606Z,33.67
2023-04-08T06:35:45.190Z,27.52
2023-04-08T06:38:13.549Z,28.60
2023-04-08T06:40:42.115Z,29.13
2023-04-08T06:43:10.412Z,20.85
2023-04-08T06:45:38.581Z,17.73
2023-04-08T06:48:09.080Z,23.77
2023-04-08T06:50:37.185Z,19.60
2023-04-08T06:53:06.654Z,22.20
2023-04-08T06:55:34.750Z,18.67
2023-04-08T06:58:02.808Z,17.25
2023-04-08T07:00:30.949Z,23.38
2023-04-08T07:02:59.199Z,18.08
2023-04-08T07:05:27.285Z,18.30
2023-04-08T07:07:55.682Z,18.15
2023-04-08T07:10:25.495Z,18.73
2023-04-08T07:12:54.006Z,18.30
2023-04-08T07:15:22.088Z,18.50
2023-04-08T07:17:50.627Z,14.85
2023-04-08T07:20:18.769Z,17.48
2023-04-08T07:22:46.811Z,15.15
2023-04-08T07:25:15.025Z,18.63
2023-04-08T07:27:44.674Z,18.65
2023-04-08T07:30:13.321Z,15.38
2023-04-08T07:32:41.579Z,14.65
2023-04-08T07:35:09.692Z,13.52
2023-04-08T07:37:37.745Z,12.90
2023-04-08T07:40:06.875Z,14.20
2023-04-08T07:42:35.064Z,18.88
2023-04-08T07:45:04.745Z,14.82
2023-04-08T07:47:32.812Z,13.75
2023-04-08T07:50:01.172Z,14.80
2023-04-08T07:52:29.300Z,13.68
2023-04-08T07:54:57.397Z,13.07
2023-04-08T07:57:25.600Z,16.33
2023-04-08T07:59:53.986Z,14.75
2023-04-08T08:02:23.561Z,14.15
2023-04-08T08:04:52.102Z,17.02
2023-04-08T08:07:20.314Z,15.55
2023-04-08T08:09:48.325Z,15.23
2023-04-08T08:12:16.376Z,22.58
2023-04-08T08:14:44.472Z,15.95
2023-04-08T08:17:12.858Z,12.63
2023-04-08T08:19:42.328Z,15.35
2023-04-08T08:22:10.463Z,14.18
2023-04-08T08:24:38.709Z,14.25
2023-04-08T08:27:06.865Z,14.38
2023-04-08T08:29:34.865Z,13.07
2023-04-08T08:32:03.702Z,14.48
2023-04-08T08:34:31.783Z,11.73
2023-04-08T08:37:01.240Z,17.17
2023-04-08T08:39:29.265Z,13.93
2023-04-08T08:41:57.728Z,14.38
2023-04-08T08:44:25.932Z,14.80
2023-04-08T08:46:54.124Z,14.50
2023-04-08T08:49:22.297Z,12.05
2023-04-08T08:51:51.150Z,14.45
2023-04-08T08:54:20.966Z,13.50
2023-04-08T08:56:49.126Z,12.30
2023-04-08T08:59:17.234Z,14.63
2023-04-08T09:01:45.453Z,13.00
2023-04-08T09:04:18.732Z,13.38
2023-04-08T09:06:48.850Z,15.55
2023-04-08T09:09:16.985Z,14.10
2023-04-08T09:11:47.247Z,14.55
2023-04-08T09:14:22.974Z,15.82
2023-04-08T09:16:51.256Z,11.60
2023-04-08T09:19:19.520Z,12.32
2023-04-08T09:21:47.773Z,13.90
2023-04-08T09:24:29.223Z,14.50
2023-04-08T09:27:01.084Z,15.70
2023-04-08T09:29:32.451Z,13.70
2023-04-08T09:32:03.091Z,13.02
2023-04-08T09:34:34.252Z,14.55
2023-04-08T09:37:02.592Z,13.13
2023-04-08T09:39:30.889Z,15.75
2023-04-08T09:42:01.329Z,11.38
2023-04-08T09:44:30.527Z,14.07
2023-04-08T09:47:02.828Z,12.75
2023-04-08T09:49:33.623Z,13.10
2023-04-08T09:52:07.586Z,15.48
2023-04-08T09:54:40.610Z,14.57
2023-04-08T09:57:11.795Z,12.85
2023-04-08T09:59:40.006Z,19.30
2023-04-08T10:02:10.848Z,15.82
2023-04-08T10:04:40.547Z,15.18
2023-04-08T10:07:08.930Z,13.30
2023-04-08T10:09:38.699Z,12.05
2023-04-08T10:12:06.950Z,13.02
2023-04-08T10:14:36.527Z,16.80
2023-04-08T10:17:27.590Z,23.08
2023-04-08T10:19:55.847Z,16.15
2023-04-08T10:22:51.880Z,14.10
2023-04-08T10:25:35.172Z,14.10
2023-04-08T10:28:03.637Z,12.15
2023-04-08T10:30:42.410Z,14.27
2023-04-08T10:33:14.664Z,15.80
2023-04-08T10:35:46.452Z,16.05
2023-04-08T10:38:14.917Z,21.30
2023-04-08T10:40:43.698Z,24.30
2023-04-08T10:43:12.249Z,17.38
2023-04-08T10:45:41.952Z,19.20
2023-04-08T10:48:17.899Z,25.70
2023-04-08T10:50:46.492Z,20.42
2023-04-08T10:53:14.590Z,30.02
2023-04-08T10:55:42.722Z,44.28
2023-04-08T10:58:11.284Z,36.85
2023-04-08T11:00:41.567Z,27.58
2023-04-08T11:03:11.658Z,29.20
2023-04-08T11:05:41.278Z,28.13
2023-04-08T11:08:09.740Z,35.85
2023-04-08T11:10:38.620Z,21.05
2023-04-08T11:13:08.889Z,15.02
2023-04-08T11:15:37.299Z,18.40
2023-04-08T11:18:07.360Z,14.50
2023-04-08T11:20:38.610Z,15.18
2023-04-08T11:23:07.502Z,15.20
2023-04-08T11:25:35.724Z,19.77
2023-04-08T11:28:03.831Z,14.73
2023-04-08T11:30:31.949Z,14.85
2023-04-08T11:33:00.153Z,11.73
2023-04-08T11:35:31.524Z,12.48
2023-04-08T11:37:59.809Z,11.88
2023-04-08T11:40:28.376Z,16.35
2023-04-08T11:42:56.456Z,13.20
2023-04-08T11:45:24.757Z,13.30
2023-04-08T11:47:54.076Z,12.38
2023-04-08T11:50:25.925Z,13.35
2023-04-08T11:52:55.789Z,13.05
2023-04-08T11:55:25.047Z,13.20
2023-04-08T11:57:53.137Z,14.45
2023-04-08T12:00:21.622Z,14.25
2023-04-08T12:02:50.109Z,14.30
2023-04-08T12:05:18.605Z,12.52
2023-04-08T12:07:47.391Z,19.10
2023-04-08T12:10:16.831Z,11.55
2023-04-08T12:12:44.940Z,11.00
2023-04-08T12:15:13.271Z,12.55
2023-04-08T12:17:41.568Z,14.60
2023-04-08T12:20:10.578Z,13.73
2023-04-08T12:22:38.676Z,13.90
2023-04-08T12:25:07.523Z,13.57
2023-04-08T12:27:37.135Z,16.17
2023-04-08T12:30:05.869Z,10.85
2023-04-08T12:32:34.881Z,11.70
2023-04-08T12:35:02.980Z,11.70
2023-04-08T12:37:31.098Z,16.13
2023-04-08T12:39:59.214Z,12.85
2023-04-08T12:42:28.144Z,12.90
2023-04-08T12:44:57.881Z,18.33
2023-04-08T12:47:27.020Z,13.27
2023-04-08T12:49:55.090Z,9.60
2023-04-08T12:52:24.304Z,12.05
2023-04-08T12:54:52.396Z,9.23
2023-04-08T12:57:21.422Z,10.80
2023-04-08T12:59:49.470Z,14.40
2023-04-08T13:02:19.304Z,8.70
2023-04-08T13:04:47.487Z,11.07
2023-04-08T13:07:15.635Z,8.65
2023-04-08T13:09:45.450Z,10.10
2023-04-08T13:12:14.528Z,10.13
2023-04-08T13:14:42.504Z,11.02
2023-04-08T13:17:10.619Z,10.18
2023-04-08T13:19:40.037Z,12.75
2023-04-08T13:22:08.294Z,10.07
2023-04-08T13:24:36.552Z,10.07
2023-04-08T13:27:05.800Z,11.70
2023-04-08T13:29:33.876Z,9.90
2023-04-08T13:32:02.563Z,10.40
2023-04-08T13:34:31.635Z,9.60
2023-04-08T13:37:01.228Z,10.40
2023-04-08T13:39:29.341Z,9.10
2023-04-08T13:41:57.729Z,12.32
2023-04-08T13:44:26.023Z,10.70
2023-04-08T13:46:54.365Z,10.18
2023-04-08T13:49:22.782Z,9.80
2023-04-08T13:51:53.200Z,10.68
2023-04-08T13:54:22.818Z,12.60
2023-04-08T13:56:50.947Z,10.98
2023-04-08T13:59:19.274Z,8.38
2023-04-08T14:01:47.519Z,9.18
2023-04-08T14:04:15.769Z,8.43
2023-04-08T14:06:44.206Z,8.98
2023-04-08T14:09:12.812Z,11.98
2023-04-08T14:11:42.370Z,13.75
2023-04-08T14:14:10.512Z,9.55
2023-04-08T14:16:38.794Z,10.68
2023-04-08T14:19:06.917Z,11.57
2023-04-08T14:21:35.020Z,11.35
2023-04-08T14:24:03.172Z,12.52
2023-04-08T14:26:33.401Z,10.27
2023-04-08T14:29:03.578Z,9.57
2023-04-08T14:31:31.945Z,11.88
2023-04-08T14:34:00.325Z,12.52
2023-04-08T14:36:28.579Z,11.27
2023-04-08T14:38:56.767Z,11.10
2023-04-08T14:41:26.464Z,11.82
2023-04-08T14:43:54.764Z,8.30
2023-04-08T14:46:25.905Z,8.70
2023-04-08T14:48:55.387Z,8.65
2023-04-08T14:51:23.708Z,9.75
2023-04-08T14:53:51.742Z,11.07
2023-04-08T14:56:19.859Z,9.95
2023-04-08T14:58:47.928Z,11.85
2023-04-08T15:01:16.150Z,12.38
2023-04-08T15:03:45.790Z,7.97
2023-04-08T15:06:17.948Z,10.55
2023-04-08T15:08:46.582Z,10.90
2023-04-08T15:11:14.848Z,8.85
2023-04-08T15:13:42.983Z,12.68
2023-04-08T15:16:11.173Z,8.52
2023-04-08T15:18:39.506Z,9.02
2023-04-08T15:21:09.117Z,8.88
2023-04-08T15:23:41.861Z,10.00
2023-04-08T15:26:10.222Z,8.80
2023-04-08T15:28:40.375Z,9.40
2023-04-08T15:31:09.335Z,11.45
2023-04-08T15:33:41.256Z,9.73
2023-04-08T15:36:12.134Z,10.52
2023-04-08T15:38:43.272Z,10.40
2023-04-08T15:41:17.111Z,11.13
2023-04-08T15:43:45.226Z,9.43
2023-04-08T15:46:14.621Z,10.02
2023-04-08T15:48:42.949Z,7.85
2023-04-08T15:51:13.604Z,10.52
2023-04-08T15:53:41.742Z,9.50
2023-04-08T15:56:14.984Z,10.60
2023-04-08T15:58:43.169Z,12.82
2023-04-08T16:01:11.371Z,11.00
2023-04-08T16:03:39.642Z,11.02
2023-04-08T16:06:08.623Z,8.02
2023-04-08T16:08:40.741Z,9.18
2023-04-08T16:11:08.935Z,7.90
2023-04-08T16:13:39.224Z,5.97
2023-04-08T16:16:08.809Z,5.80
2023-04-08T16:18:37.226Z,6.13
2023-04-08T16:21:05.925Z,5.85
2023-04-08T16:23:35.645Z,9.60
2023-04-08T16:26:05.856Z,6.50
2023-04-08T16:28:33.884Z,6.18
2023-04-08T16:31:02.416Z,6.35
2023-04-08T16:33:30.968Z,6.20
2023-04-08T16:35:59.194Z,8.10
2023-04-08T16:38:27.339Z,6.22
2023-04-08T16:40:58.390Z,8.32
2023-04-08T16:43:28.111Z,28.60
2023-04-08T16:45:56.371Z,12.95
2023-04-08T16:48:24.512Z,11.75
2023-04-08T16:50:52.659Z,7.88
2023-04-08T16:53:20.903Z,7.03
2023-04-08T16:55:49.289Z,6.30
2023-04-08T16:58:17.423Z,6.07
2023-04-08T17:00:46.964Z,5.63
2023-04-08T17:03:15.232Z,7.65
2023-04-08T17:05:43.577Z,5.10
2023-04-08T17:08:11.853Z,5.68
2023-04-08T17:10:39.920Z,6.15
2023-04-08T17:13:08.232Z,7.82
2023-04-08T17:15:36.783Z,6.95
2023-04-08T17:18:06.646Z,5.50
2023-04-08T17:20:34.796Z,7.47
2023-04-08T17:23:03.153Z,7.15
2023-04-08T17:25:31.575Z,4.97
2023-04-08T17:27:59.778Z,7.03
2023-04-08T17:30:28.610Z,5.35
2023-04-08T17:32:56.904Z,7.82
2023-04-08T17:35:26.646Z,5.95
2023-04-08T17:37:56.131Z,4.05
2023-04-08T17:40:24.264Z,9.25
2023-04-08T17:42:52.484Z,6.03
2023-04-08T17:45:20.667Z,5.75
2023-04-08T17:47:48.775Z,5.43
2023-04-08T17:50:17.068Z,6.82
2023-04-08T17:52:47.845Z,5.68
2023-04-08T17:55:16.180Z,5.90
2023-04-08T17:57:44.609Z,5.85
2023-04-08T18:00:13.238Z,4.95
2023-04-08T18:02:42.010Z,5.97
2023-04-08T18:05:11.660Z,8.82
2023-04-08T18:07:39.799Z,5.07
2023-04-08T18:10:10.886Z,9.75
2023-04-08T18:12:39.448Z,8.18
2023-04-08T18:15:08.445Z,5.15
2023-04-08T18:17:36.625Z,6.78
2023-04-08T18:20:16.074Z,6.07
2023-04-08T18:22:44.185Z,6.00
2023-04-08T18:25:13.640Z,6.53
2023-04-08T18:27:41.788Z,4.70
2023-04-08T18:30:10.862Z,7.10
2023-04-08T18:32:39.210Z,4.35
2023-04-08T18:35:07.931Z,6.30
2023-04-08T18:37:36.007Z,6.97
2023-04-08T18:40:04.963Z,6.50
2023-04-08T18:42:34.730Z,7.88
2023-04-08T18:45:02.855Z,5.88
2023-04-08T18:47:31.642Z,8.02
2023-04-08T18:49:59.760Z,7.28
2023-04-08T18:52:28.014Z,8.25
2023-04-08T18:54:56.423Z,4.72
2023-04-08T18:57:24.934Z,5.35
2023-04-08T18:59:54.583Z,6.97
2023-04-08T19:02:23.052Z,4.85
2023-04-08T19:04:52.185Z,4.45
2023-04-08T19:07:20.283Z,6.60
2023-04-08T19:09:48.966Z,8.13
2023-04-08T19:12:17.224Z,9.50
2023-04-08T19:14:45.412Z,12.93
2023-04-08T19:17:15.168Z,11.93
2023-04-08T19:19:43.326Z,25.00
2023-04-08T19:22:11.499Z,8.60
2023-04-08T19:24:39.726Z,4.90
2023-04-08T19:27:07.853Z,17.20
2023-04-08T19:29:36.430Z,7.65
2023-04-08T19:32:04.590Z,6.70
2023-04-08T19:34:37.596Z,7.15
2023-04-08T19:37:06.106Z,6.78
2023-04-08T19:39:34.146Z,7.35
2023-04-08T19:42:02.258Z,6.95
2023-04-08T19:44:30.695Z,9.20
2023-04-08T19:46:58.806Z,6.93
2023-04-08T19:49:27.252Z,8.45
2023-04-08T19:51:56.969Z,8.98
2023-04-08T19:54:25.307Z,8.02
2023-04-08T19:56:53.962Z,8.38
2023-04-08T19:59:24.387Z,5.93
2023-04-08T20:01:52.585Z,12.45
2023-04-08T20:04:21.049Z,9.32
2023-04-08T20:06:49.323Z,10.13
2023-04-08T20:09:18.927Z,12.57
2023-04-08T20:11:47.021Z,6.95
2023-04-08T20:14:15.317Z,9.32
2023-04-08T20:16:43.826Z,7.55
2023-04-08T20:19:13.052Z,7.72
2023-04-08T20:21:41.584Z,9.00
2023-04-08T20:24:09.594Z,7.07
2023-04-08T20:26:40.969Z,5.72
2023-04-08T20:29:09.138Z,7.60
2023-04-08T20:31:38.335Z,7.20
2023-04-08T20:34:07.461Z,8.45
2023-04-08T20:36:35.587Z,7.80
2023-04-08T20:39:04.506Z,7.07
2023-04-08T20:41:32.915Z,6.80
2023-04-08T20:44:02.494Z,9.05
2023-04-08T20:46:30.773Z,8.05
2023-04-08T20:48:59.049Z,9.70
2023-04-08T20:51:27.373Z,9.82
2023-04-08T20:53:55.915Z,6.97
2023-04-08T20:56:23.972Z,8.35
2023-04-08T20:58:52.237Z,9.88
2023-04-08T21:01:24.253Z,8.35
2023-04-08T21:03:52.656Z,9.20
2023-04-08T21:06:20.902Z,11.10
2023-04-08T21:08:49.150Z,10.18
2023-04-08T21:11:17.538Z,9.27
2023-04-08T21:13:47.371Z,7.82
2023-04-08T21:16:16.871Z,10.10
2023-04-08T21:18:46.506Z,8.13
2023-04-08T21:21:14.674Z,11.52
2023-04-08T21:23:42.686Z,9.48
2023-04-08T21:26:13.693Z,11.57
2023-04-08T21:28:41.800Z,8.98
2023-04-08T21:31:10.621Z,9.75
2023-04-08T21:33:38.712Z,7.72
2023-04-08T21:36:08.358Z,8.05
2023-04-08T21:38:36.830Z,9.32
2023-04-08T21:41:04.890Z,8.60
2023-04-08T21:43:33.125Z,9.38
2023-04-08T21:46:01.307Z,10.65
2023-04-08T21:48:29.373Z,10.07
2023-04-08T21:50:59.108Z,10.40
2023-04-08T21:53:28.551Z,8.60
2023-04-08T21:55:56.724Z,8.48
2023-04-08T21:58:24.968Z,10.88
2023-04-08T22:00:53.121Z,12.32
2023-04-08T22:03:21.476Z,13.27
2023-04-08T22:05:51.115Z,12.45
2023-04-08T22:08:19.192Z,9.60
2023-04-08T22:10:48.946Z,9.52
2023-04-08T22:13:18.834Z,8.60
2023-04-08T22:15:46.999Z,9.80
2023-04-08T22:18:15.619Z,10.40
2023-04-08T22:20:43.682Z,11.20
2023-04-08T22:23:11.786Z,11.55
2023-04-08T22:25:39.896Z,12.77
2023-04-08T22:28:09.304Z,10.13
2023-04-08T22:30:37.526Z,12.75
2023-04-08T22:33:05.754Z,11.73
2023-04-08T22:35:33.891Z,11.90
2023-04-08T22:38:02.388Z,11.98
2023-04-08T22:40:30.476Z,11.63
2023-04-08T22:42:58.518Z,12.70
2023-04-08T22:45:28.143Z,10.93
2023-04-08T22:47:56.665Z,12.40
2023-04-08T22:50:24.829Z,12.38
2023-04-08T22:52:52.920Z,10.88
2023-04-08T22:55:21.170Z,11.43
2023-04-08T22:57:49.402Z,9.98
2023-04-08T23:00:17.591Z,11.90
2023-04-08T23:02:47.038Z,13.43
2023-04-08T23:05:15.183Z,11.02
2023-04-08T23:07:43.190Z,12.55
2023-04-08T23:10:11.793Z,13.18
2023-04-08T23:12:40.101Z,17.52
2023-04-08T23:15:08.884Z,12.65
2023-04-08T23:17:36.956Z,11.63
2023-04-08T23:20:07.832Z,14.77
2023-04-08T23:22:35.940Z,12.18
2023-04-08T23:25:04.064Z,15.98
2023-04-08T23:27:32.113Z,13.82
2023-04-08T23:30:05.426Z,13.93
2023-04-08T23:32:33.620Z,13.15
2023-04-08T23:35:01.934Z,15.35
2023-04-08T23:37:31.410Z,11.82
2023-04-08T23:39:59.470Z,12.65
2023-04-08T23:42:27.808Z,16.17
2023-04-08T23:44:55.963Z,11.40
2023-04-08T23:47:26.588Z,11.65
2023-04-08T23:49:54.604Z,15.10
2023-04-08T23:52:22.645Z,23.02
2023-04-08T23:54:52.796Z,17.40
2023-04-08T23:57:21.430Z,12.18
2023-04-08T23:59:49.480Z,12.57
